createdAt,value
2016-08-05T00:00:12.458Z,1007.12
2016-08-05T00:01:12.464Z,1007.15
2016-08-05T00:02:12.471Z,1007.13
2016-08-05T00:03:12.476Z,1007.15
2016-08-05T00:04:12.483Z,1007.12
2016-08-05T00:05:12.489Z,1007.15
2016-08-05T00:06:12.497Z,1007.08
2016-08-05T00:07:12.502Z,1007.06
2016-08-05T00:08:12.508Z,1007.06
2016-08-05T00:09:12.514Z,1007
2016-08-05T00:10:12.524Z,1007.05
2016-08-05T00:11:12.526Z,1006.95
2016-08-05T00:12:12.534Z,1007.06
2016-08-05T00:13:12.539Z,1007.03
2016-08-05T00:14:12.544Z,1007.12
2016-08-05T00:15:12.550Z,1007.11
2016-08-05T00:16:12.556Z,1007.13
2016-08-05T00:17:12.564Z,1007.1
2016-08-05T00:18:12.569Z,1007.08
2016-08-05T00:19:12.576Z,1007.11
2016-08-05T00:20:12.582Z,1007.14
2016-08-05T00:21:12.587Z,1007.12
2016-08-05T00:22:12.595Z,1007.16
2016-08-05T00:23:12.600Z,1007.15
2016-08-05T00:24:12.606Z,1007.14
2016-08-05T00:25:12.612Z,1007.11
2016-08-05T00:26:12.619Z,1007.08
2016-08-05T00:27:12.624Z,1007.04
2016-08-05T00:28:12.630Z,1007.03
2016-08-05T00:29:12.637Z,1007.07
2016-08-05T00:30:12.646Z,1007.02
2016-08-05T00:31:12.651Z,1007.04
2016-08-05T00:32:12.655Z,1007.06
2016-08-05T00:33:12.663Z,1007.08
2016-08-05T00:34:12.670Z,1007.11
2016-08-05T00:35:12.674Z,1007.08
2016-08-05T00:36:12.680Z,1007.14
2016-08-05T00:37:12.685Z,1007.1
2016-08-05T00:38:12.693Z,1007.14
2016-08-05T00:39:12.698Z,1007.13
2016-08-05T00:41:12.711Z,1007.17
2016-08-05T00:42:12.717Z,1007.19
2016-08-05T00:43:12.724Z,1007.21
2016-08-05T00:44:12.730Z,1007.2
2016-08-05T00:45:12.735Z,1007.21
2016-08-05T00:46:12.742Z,1007.2
2016-08-05T00:47:12.748Z,1007.22
2016-08-05T00:48:12.754Z,1007.2
2016-08-05T00:49:12.761Z,1007.16
2016-08-05T00:50:12.768Z,1007.15
2016-08-05T00:51:12.773Z,1007.15
2016-08-05T00:52:12.780Z,1007.14
2016-08-05T00:53:12.785Z,1007.12
2016-08-05T00:54:12.790Z,1007.08
2016-08-05T00:55:12.797Z,1007.05
2016-08-05T00:56:12.803Z,1007.08
2016-08-05T00:57:12.810Z,1007.14
2016-08-05T00:58:12.816Z,1007.15
2016-08-05T00:59:12.821Z,1007.2
2016-08-05T01:00:12.827Z,1007.24
2016-08-05T01:01:12.838Z,1007.23
2016-08-05T01:02:12.839Z,1007.25
2016-08-05T01:03:12.845Z,1007.27
2016-08-05T01:04:12.851Z,1007.31
2016-08-05T01:05:12.858Z,1007.3
2016-08-05T01:06:12.863Z,1007.26
2016-08-05T01:07:12.869Z,1007.26
2016-08-05T01:08:12.876Z,1007.25
2016-08-05T01:09:12.882Z,1007.24
2016-08-05T01:10:12.889Z,1007.22
2016-08-05T01:11:12.895Z,1007.24
2016-08-05T01:12:12.900Z,1007.23
2016-08-05T01:13:12.906Z,1007.32
2016-08-05T01:14:12.912Z,1007.32
2016-08-05T01:15:12.918Z,1007.32
2016-08-05T01:16:12.925Z,1007.37
2016-08-05T01:17:12.930Z,1007.41
2016-08-05T01:18:12.936Z,1007.4
2016-08-05T01:19:12.942Z,1007.4
2016-08-05T01:20:12.949Z,1007.37
2016-08-05T01:21:12.953Z,1007.32
2016-08-05T01:22:12.962Z,1007.38
2016-08-05T01:23:12.967Z,1007.38
2016-08-05T01:24:12.973Z,1007.37
2016-08-05T01:25:12.978Z,1007.37
2016-08-05T01:26:12.985Z,1007.39
2016-08-05T01:27:12.991Z,1007.44
2016-08-05T01:28:12.997Z,1007.42
2016-08-05T01:29:13.004Z,1007.45
2016-08-05T01:30:13.010Z,1007.44
2016-08-05T01:31:13.014Z,1007.48
2016-08-05T01:32:13.022Z,1007.46
2016-08-05T01:33:13.028Z,1007.43
2016-08-05T01:34:13.035Z,1007.41
2016-08-05T01:35:13.040Z,1007.4
2016-08-05T01:36:13.045Z,1007.4
2016-08-05T01:37:13.052Z,1007.45
2016-08-05T01:38:13.058Z,1007.46
2016-08-05T01:39:13.064Z,1007.45
2016-08-05T01:40:13.071Z,1007.5
2016-08-05T01:41:13.077Z,1007.48
2016-08-05T01:42:13.083Z,1007.46
2016-08-05T01:43:13.090Z,1007.48
2016-08-05T01:44:13.095Z,1007.46
2016-08-05T01:45:13.100Z,1007.51
2016-08-05T01:46:13.108Z,1007.49
2016-08-05T01:47:13.114Z,1007.48
2016-08-05T01:48:13.121Z,1007.52
2016-08-05T01:49:13.124Z,1007.45
2016-08-05T01:50:13.132Z,1007.47
2016-08-05T01:51:13.138Z,1007.44
2016-08-05T01:52:13.145Z,1007.38
2016-08-05T01:53:13.149Z,1007.32
2016-08-05T01:54:13.157Z,1007.36
2016-08-05T01:55:13.163Z,1007.37
2016-08-05T01:56:13.169Z,1007.4
2016-08-05T01:57:13.174Z,1007.46
2016-08-05T01:58:13.190Z,1007.47
2016-08-05T01:59:13.187Z,1007.5
2016-08-05T02:00:13.193Z,1007.5
2016-08-05T02:01:13.197Z,1007.48
2016-08-05T02:02:13.205Z,1007.45
2016-08-05T02:03:13.211Z,1007.44
2016-08-05T02:04:13.217Z,1007.43
2016-08-05T02:05:13.223Z,1007.4
2016-08-05T02:06:13.231Z,1007.32
2016-08-05T02:07:13.236Z,1007.28
2016-08-05T02:08:13.241Z,1007.24
2016-08-05T02:09:13.248Z,1007.27
2016-08-05T02:10:13.256Z,1007.23
2016-08-05T02:11:13.262Z,1007.22
2016-08-05T02:12:13.266Z,1007.14
2016-08-05T02:13:13.275Z,1007.13
2016-08-05T02:14:13.278Z,1007.05
2016-08-05T02:15:13.284Z,1007.11
2016-08-05T02:16:13.289Z,1007.17
2016-08-05T02:17:13.298Z,1007.24
2016-08-05T02:18:13.304Z,1007.28
2016-08-05T02:19:13.309Z,1007.28
2016-08-05T02:20:13.314Z,1007.3
2016-08-05T02:21:13.322Z,1007.24
2016-08-05T02:22:13.326Z,1007.23
2016-08-05T02:23:13.333Z,1007.25
2016-08-05T02:24:13.340Z,1007.29
2016-08-05T02:25:13.345Z,1007.33
2016-08-05T02:26:13.351Z,1007.36
2016-08-05T02:27:13.358Z,1007.38
2016-08-05T02:28:13.364Z,1007.42
2016-08-05T02:29:13.368Z,1007.45
2016-08-05T02:30:13.376Z,1007.46
2016-08-05T02:31:13.383Z,1007.41
2016-08-05T02:32:13.388Z,1007.48
2016-08-05T02:33:13.393Z,1007.51
2016-08-05T02:34:13.400Z,1007.53
2016-08-05T02:35:13.408Z,1007.57
2016-08-05T02:36:13.411Z,1007.61
2016-08-05T02:37:13.418Z,1007.63
2016-08-05T02:38:13.425Z,1007.68
2016-08-05T02:39:13.430Z,1007.64
2016-08-05T02:40:13.435Z,1007.61
2016-08-05T02:41:13.442Z,1007.65
2016-08-05T02:42:13.449Z,1007.67
2016-08-05T02:43:13.454Z,1007.67
2016-08-05T02:44:13.464Z,1007.68
2016-08-05T02:45:13.467Z,1007.64
2016-08-05T02:46:13.473Z,1007.59
2016-08-05T02:47:13.478Z,1007.61
2016-08-05T02:48:13.486Z,1007.62
2016-08-05T02:49:13.491Z,1007.62
2016-08-05T02:50:13.497Z,1007.57
2016-08-05T02:51:13.502Z,1007.5
2016-08-05T02:52:13.509Z,1007.47
2016-08-05T02:53:13.516Z,1007.44
2016-08-05T02:54:13.524Z,1007.45
2016-08-05T02:55:13.526Z,1007.49
2016-08-05T02:56:13.533Z,1007.52
2016-08-05T02:57:13.540Z,1007.55
2016-08-05T02:58:13.545Z,1007.6
2016-08-05T02:59:13.551Z,1007.6
2016-08-05T03:00:13.558Z,1007.65
2016-08-05T03:01:13.563Z,1007.7
2016-08-05T03:02:13.570Z,1007.72
2016-08-05T03:03:13.576Z,1007.77
2016-08-05T03:04:13.582Z,1007.77
2016-08-05T03:05:13.587Z,1007.84
2016-08-05T03:06:13.594Z,1007.85
2016-08-05T03:07:13.600Z,1007.83
2016-08-05T03:08:13.606Z,1007.86
2016-08-05T03:09:13.611Z,1007.9
2016-08-05T03:10:13.618Z,1007.87
2016-08-05T03:11:13.624Z,1007.93
2016-08-05T03:12:13.630Z,1007.88
2016-08-05T03:13:13.636Z,1007.87
2016-08-05T03:14:13.642Z,1007.87
2016-08-05T03:15:13.648Z,1007.89
2016-08-05T03:16:13.655Z,1007.92
2016-08-05T03:17:13.661Z,1007.9
2016-08-05T03:18:13.666Z,1007.91
2016-08-05T03:19:13.674Z,1007.89
2016-08-05T03:20:13.677Z,1007.89
2016-08-05T03:21:13.685Z,1007.83
2016-08-05T03:22:13.691Z,1007.83
2016-08-05T03:23:13.697Z,1007.85
2016-08-05T03:24:13.703Z,1007.89
2016-08-05T03:25:13.708Z,1007.92
2016-08-05T03:26:13.715Z,1007.92
2016-08-05T03:27:13.722Z,1007.87
2016-08-05T03:28:13.728Z,1007.8
2016-08-05T03:29:13.732Z,1007.76
2016-08-05T03:30:13.739Z,1007.73
2016-08-05T03:31:13.746Z,1007.7
2016-08-05T03:32:13.802Z,1007.74
2016-08-05T03:33:13.758Z,1007.78
2016-08-05T03:34:13.765Z,1007.86
2016-08-05T03:35:13.769Z,1007.95
2016-08-05T03:36:13.776Z,1007.97
2016-08-05T03:37:13.782Z,1008.02
2016-08-05T03:38:13.789Z,1007.97
2016-08-05T03:39:13.795Z,1007.91
2016-08-05T03:40:13.801Z,1007.83
2016-08-05T03:41:13.809Z,1007.81
2016-08-05T03:42:13.813Z,1007.85
2016-08-05T03:43:13.819Z,1007.85
2016-08-05T03:44:13.825Z,1007.89
2016-08-05T03:45:13.831Z,1007.92
2016-08-05T03:46:13.837Z,1007.89
2016-08-05T03:47:13.843Z,1007.83
2016-08-05T03:48:13.850Z,1007.83
2016-08-05T03:49:13.855Z,1007.8
2016-08-05T03:50:13.861Z,1007.76
2016-08-05T03:51:13.867Z,1007.9
2016-08-05T03:52:13.874Z,1007.9
2016-08-05T03:53:13.878Z,1007.95
2016-08-05T03:54:13.886Z,1007.95
2016-08-05T03:55:13.891Z,1007.97
2016-08-05T03:56:13.899Z,1007.93
2016-08-05T03:57:13.903Z,1007.82
2016-08-05T03:58:13.910Z,1007.78
2016-08-05T03:59:13.916Z,1007.7
2016-08-05T04:00:13.921Z,1007.73
2016-08-05T04:01:13.930Z,1007.71
2016-08-05T04:02:13.933Z,1007.75
2016-08-05T04:03:13.941Z,1007.82
2016-08-05T04:04:13.944Z,1007.84
2016-08-05T04:05:13.952Z,1007.89
2016-08-05T04:06:13.958Z,1007.9
2016-08-05T04:07:13.965Z,1007.89
2016-08-05T04:08:13.969Z,1007.95
2016-08-05T04:09:13.976Z,1008
2016-08-05T04:10:13.983Z,1007.99
2016-08-05T04:11:13.987Z,1008
2016-08-05T04:12:13.993Z,1008.03
2016-08-05T04:13:14.000Z,1007.99
2016-08-05T04:14:14.007Z,1008.02
2016-08-05T04:15:14.011Z,1008.02
2016-08-05T04:16:14.019Z,1007.98
2016-08-05T04:17:14.025Z,1008.01
2016-08-05T04:18:14.031Z,1007.96
2016-08-05T04:19:14.036Z,1008
2016-08-05T04:20:14.043Z,1008
2016-08-05T04:21:14.048Z,1008
2016-08-05T04:22:14.055Z,1008.01
2016-08-05T04:23:14.060Z,1008
2016-08-05T04:24:14.067Z,1008.02
2016-08-05T04:25:14.072Z,1008.02
2016-08-05T04:26:14.077Z,1008.07
2016-08-05T04:27:14.084Z,1008.09
2016-08-05T04:28:14.091Z,1008.13
2016-08-05T04:29:14.097Z,1008.1
2016-08-05T04:30:14.103Z,1008.1
2016-08-05T04:31:14.108Z,1008.09
2016-08-05T04:32:14.114Z,1008.02
2016-08-05T04:33:14.120Z,1008
2016-08-05T04:34:14.125Z,1007.97
2016-08-05T04:35:14.136Z,1007.96
2016-08-05T04:36:14.138Z,1007.96
2016-08-05T04:37:14.142Z,1008.01
2016-08-05T04:38:14.149Z,1008.01
2016-08-05T04:39:14.156Z,1008.01
2016-08-05T04:40:14.162Z,1008.07
2016-08-05T04:41:14.166Z,1008.04
2016-08-05T04:42:14.174Z,1008.05
2016-08-05T04:43:14.179Z,1008.05
2016-08-05T04:44:14.186Z,1008.03
2016-08-05T04:45:14.196Z,1008.02
2016-08-05T04:46:14.197Z,1008.09
2016-08-05T04:47:14.203Z,1008.1
2016-08-05T04:48:14.209Z,1008.12
2016-08-05T04:49:14.216Z,1008.15
2016-08-05T04:50:14.222Z,1008.16
2016-08-05T04:51:14.227Z,1008.13
2016-08-05T04:52:14.234Z,1008.12
2016-08-05T04:53:14.239Z,1008.16
2016-08-05T04:54:14.246Z,1008.22
2016-08-05T04:55:14.251Z,1008.25
2016-08-05T04:56:14.257Z,1008.28
2016-08-05T04:57:14.264Z,1008.32
2016-08-05T04:58:14.268Z,1008.33
2016-08-05T04:59:14.275Z,1008.37
2016-08-05T05:00:14.281Z,1008.37
2016-08-05T05:01:14.286Z,1008.42
2016-08-05T05:02:14.294Z,1008.4
2016-08-05T05:03:14.299Z,1008.41
2016-08-05T05:04:14.306Z,1008.47
2016-08-05T05:05:14.311Z,1008.36
2016-08-05T05:06:14.317Z,1008.38
2016-08-05T05:07:14.325Z,1008.39
2016-08-05T05:08:14.333Z,1008.41
2016-08-05T05:09:14.336Z,1008.39
2016-08-05T05:10:14.341Z,1008.41
2016-08-05T05:11:14.348Z,1008.42
2016-08-05T05:12:14.352Z,1008.4
2016-08-05T05:13:14.360Z,1008.42
2016-08-05T05:14:14.366Z,1008.47
2016-08-05T05:15:14.371Z,1008.48
2016-08-05T05:16:14.378Z,1008.52
2016-08-05T05:17:14.384Z,1008.53
2016-08-05T05:18:14.400Z,1008.59
2016-08-05T05:19:14.395Z,1008.63
2016-08-05T05:20:14.413Z,1008.66
2016-08-05T05:21:14.408Z,1008.65
2016-08-05T05:22:14.414Z,1008.69
2016-08-05T05:23:14.420Z,1008.73
2016-08-05T05:24:14.427Z,1008.73
2016-08-05T05:25:14.555Z,1008.77
2016-08-05T05:26:14.437Z,1008.76
2016-08-05T05:27:14.443Z,1008.78
2016-08-05T05:28:14.449Z,1008.77
2016-08-05T05:29:14.456Z,1008.79
2016-08-05T05:30:14.462Z,1008.79
2016-08-05T05:31:14.470Z,1008.74
2016-08-05T05:32:15.140Z,1008.71
2016-08-05T05:33:14.481Z,1008.71
2016-08-05T05:34:14.487Z,1008.72
2016-08-05T05:35:14.492Z,1008.79
2016-08-05T05:36:14.497Z,1008.82
2016-08-05T05:37:14.504Z,1008.78
2016-08-05T05:38:14.512Z,1008.83
2016-08-05T05:39:14.517Z,1008.85
2016-08-05T05:40:14.525Z,1008.88
2016-08-05T05:41:14.529Z,1008.92
2016-08-05T05:42:14.536Z,1008.93
2016-08-05T05:43:14.545Z,1009
2016-08-05T05:44:14.547Z,1008.97
2016-08-05T05:45:14.553Z,1008.99
2016-08-05T05:46:14.559Z,1009.03
2016-08-05T05:47:14.567Z,1009
2016-08-05T05:48:14.572Z,1009.04
2016-08-05T05:49:14.578Z,1009.06
2016-08-05T05:50:14.653Z,1009.07
2016-08-05T05:51:14.590Z,1009.06
2016-08-05T05:52:15.045Z,1009.08
2016-08-05T05:53:14.603Z,1009.08
2016-08-05T05:54:14.607Z,1009.16
2016-08-05T05:55:14.614Z,1009.15
2016-08-05T05:56:14.621Z,1009.17
2016-08-05T05:57:14.627Z,1009.19
2016-08-05T05:58:14.632Z,1009.21
2016-08-05T05:59:14.638Z,1009.2
2016-08-05T06:00:14.650Z,1009.2
2016-08-05T06:01:14.650Z,1009.16
2016-08-05T06:02:14.655Z,1009.14
2016-08-05T06:03:14.663Z,1009.12
2016-08-05T06:04:14.669Z,1009.15
2016-08-05T06:05:14.673Z,1009.08
2016-08-05T06:06:14.681Z,1009.07
2016-08-05T06:07:14.689Z,1009.06
2016-08-05T06:08:14.692Z,1009.09
2016-08-05T06:09:14.699Z,1009.15
2016-08-05T06:10:14.705Z,1009.17
2016-08-05T06:11:14.718Z,1009.2
2016-08-05T06:12:14.717Z,1009.2
2016-08-05T06:13:14.723Z,1009.16
2016-08-05T06:14:14.730Z,1009.2
2016-08-05T06:15:14.736Z,1009.19
2016-08-05T06:16:14.753Z,1009.18
2016-08-05T06:17:14.749Z,1009.2
2016-08-05T06:18:14.754Z,1009.26
2016-08-05T06:19:16.174Z,1009.24
2016-08-05T06:20:14.765Z,1009.28
2016-08-05T06:21:14.773Z,1009.33
2016-08-05T06:22:14.777Z,1009.32
2016-08-05T06:23:14.783Z,1009.36
2016-08-05T06:24:14.790Z,1009.36
2016-08-05T06:25:14.796Z,1009.37
2016-08-05T06:27:14.807Z,1009.32
2016-08-05T06:28:14.924Z,1009.32
2016-08-05T06:29:14.919Z,1009.33
2016-08-05T06:30:14.921Z,1009.3
2016-08-05T06:31:14.928Z,1009.3
2016-08-05T06:32:14.935Z,1009.36
2016-08-05T06:33:14.948Z,1009.31
2016-08-05T06:34:14.868Z,1009.3
2016-08-05T06:35:14.975Z,1009.31
2016-08-05T06:36:15.463Z,1009.38
2016-08-05T06:37:14.892Z,1009.43
2016-08-05T06:38:15.048Z,1009.45
2016-08-05T06:39:14.994Z,1009.41
2016-08-05T06:40:15.193Z,1009.48
2016-08-05T06:42:15.005Z,1009.51
2016-08-05T06:43:14.972Z,1009.53
2016-08-05T06:44:14.962Z,1009.56
2016-08-05T06:45:14.918Z,1009.56
2016-08-05T06:46:14.972Z,1009.57
2016-08-05T06:47:15.053Z,1009.63
2016-08-05T06:48:14.962Z,1009.58
2016-08-05T06:49:15.239Z,1009.6
2016-08-05T06:50:15.077Z,1009.58
2016-08-05T06:51:15.064Z,1009.55
2016-08-05T06:52:15.242Z,1009.58
2016-08-05T06:53:15.433Z,1009.56
2016-08-05T06:54:15.068Z,1009.62
2016-08-05T06:55:14.980Z,1009.6
2016-08-05T06:57:14.995Z,1009.6
2016-08-05T06:58:15.126Z,1009.63
2016-08-05T06:59:15.004Z,1009.58
2016-08-05T07:00:15.010Z,1009.61
2016-08-05T07:01:15.015Z,1009.59
2016-08-05T07:02:15.117Z,1009.62
2016-08-05T07:03:15.294Z,1009.58
2016-08-05T07:04:15.419Z,1009.58
2016-08-05T07:05:15.041Z,1009.55
2016-08-05T07:06:15.048Z,1009.54
2016-08-05T07:07:15.052Z,1009.54
2016-08-05T07:08:15.061Z,1009.55
2016-08-05T07:09:15.065Z,1009.55
2016-08-05T07:10:15.118Z,1009.55
2016-08-05T07:12:15.156Z,1009.53
2016-08-05T07:13:15.113Z,1009.54
2016-08-05T07:14:15.148Z,1009.59
2016-08-05T07:15:15.103Z,1009.55
2016-08-05T07:16:15.108Z,1009.52
2016-08-05T07:17:15.114Z,1009.54
2016-08-05T07:18:15.120Z,1009.53
2016-08-05T07:19:15.126Z,1009.54
2016-08-05T07:20:15.133Z,1009.52
2016-08-05T07:21:15.139Z,1009.49
2016-08-05T07:22:15.210Z,1009.55
2016-08-05T07:23:15.150Z,1009.57
2016-08-05T07:24:15.186Z,1009.62
2016-08-05T07:25:15.162Z,1009.62
2016-08-05T07:27:15.175Z,1009.65
2016-08-05T07:28:15.181Z,1009.69
2016-08-05T07:29:15.227Z,1009.73
2016-08-05T07:30:15.196Z,1009.72
2016-08-05T07:31:15.200Z,1009.65
2016-08-05T07:32:15.205Z,1009.7
2016-08-05T07:33:15.213Z,1009.68
2016-08-05T07:34:15.219Z,1009.74
2016-08-05T07:35:15.234Z,1009.74
2016-08-05T07:36:15.230Z,1009.75
2016-08-05T07:37:15.236Z,1009.78
2016-08-05T07:38:15.244Z,1009.8
2016-08-05T07:39:15.250Z,1009.76
2016-08-05T07:40:15.255Z,1009.78
2016-08-05T07:41:15.261Z,1009.77
2016-08-05T07:42:15.274Z,1009.76
2016-08-05T07:43:15.273Z,1009.75
2016-08-05T07:44:15.278Z,1009.74
2016-08-05T07:45:15.284Z,1009.74
2016-08-05T07:46:15.292Z,1009.75
2016-08-05T07:47:15.297Z,1009.79
2016-08-05T07:48:15.303Z,1009.74
2016-08-05T07:49:15.330Z,1009.76
2016-08-05T07:50:15.317Z,1009.71
2016-08-05T07:51:15.322Z,1009.73
2016-08-05T07:52:15.328Z,1009.76
2016-08-05T07:53:15.335Z,1009.75
2016-08-05T07:54:15.341Z,1009.84
2016-08-05T07:55:15.345Z,1009.8
2016-08-05T07:56:15.353Z,1009.81
2016-08-05T07:57:15.360Z,1009.84
2016-08-05T07:58:15.364Z,1009.87
2016-08-05T07:59:15.371Z,1009.87
2016-08-05T08:00:15.377Z,1009.93
2016-08-05T08:01:15.384Z,1009.89
2016-08-05T08:02:15.390Z,1009.93
2016-08-05T08:03:15.395Z,1009.96
2016-08-05T08:04:15.401Z,1009.92
2016-08-05T08:05:15.409Z,1009.92
2016-08-05T08:06:15.414Z,1009.96
2016-08-05T08:07:15.420Z,1009.99
2016-08-05T08:08:15.430Z,1009.99
2016-08-05T08:09:15.432Z,1010.04
2016-08-05T08:10:15.440Z,1010.03
2016-08-05T08:11:15.446Z,1010.07
2016-08-05T08:12:15.452Z,1010.07
2016-08-05T08:13:15.456Z,1010.06
2016-08-05T08:14:15.463Z,1010.09
2016-08-05T08:15:15.470Z,1010.09
2016-08-05T08:16:15.475Z,1010.09
2016-08-05T08:17:15.481Z,1010.1
2016-08-05T08:18:15.489Z,1010.12
2016-08-05T08:19:15.495Z,1010.13
2016-08-05T08:20:15.500Z,1010.12
2016-08-05T08:21:15.507Z,1010.12
2016-08-05T08:22:15.513Z,1010.13
2016-08-05T08:23:15.519Z,1010.14
2016-08-05T08:24:15.525Z,1010.14
2016-08-05T08:25:15.533Z,1010.17
2016-08-05T08:26:15.538Z,1010.15
2016-08-05T08:27:15.545Z,1010.16
2016-08-05T08:28:15.552Z,1010.16
2016-08-05T08:29:15.556Z,1010.17
2016-08-05T08:30:15.565Z,1010.18
2016-08-05T08:31:15.568Z,1010.21
2016-08-05T08:32:15.575Z,1010.25
2016-08-05T08:33:15.581Z,1010.24
2016-08-05T08:34:15.587Z,1010.27
2016-08-05T08:35:15.593Z,1010.29
2016-08-05T08:36:15.601Z,1010.31
2016-08-05T08:37:15.607Z,1010.29
2016-08-05T08:38:15.614Z,1010.35
2016-08-05T08:39:15.618Z,1010.3
2016-08-05T08:40:15.630Z,1010.29
2016-08-05T08:41:15.631Z,1010.28
2016-08-05T08:42:15.636Z,1010.29
2016-08-05T08:43:15.642Z,1010.27
2016-08-05T08:44:15.649Z,1010.32
2016-08-05T08:45:15.656Z,1010.31
2016-08-05T08:46:15.661Z,1010.34
2016-08-05T08:47:15.666Z,1010.33
2016-08-05T08:48:15.674Z,1010.37
2016-08-05T08:49:15.693Z,1010.39
2016-08-05T08:50:15.686Z,1010.39
2016-08-05T08:51:15.715Z,1010.42
2016-08-05T08:52:15.767Z,1010.47
2016-08-05T08:53:15.704Z,1010.46
2016-08-05T08:54:15.710Z,1010.49
2016-08-05T08:55:15.716Z,1010.51
2016-08-05T08:56:15.999Z,1010.53
2016-08-05T08:57:15.728Z,1010.52
2016-08-05T08:58:15.735Z,1010.53
2016-08-05T08:59:15.742Z,1010.53
2016-08-05T09:00:15.749Z,1010.54
2016-08-05T09:01:15.753Z,1010.55
2016-08-05T09:02:15.760Z,1010.59
2016-08-05T09:03:15.767Z,1010.58
2016-08-05T09:04:15.772Z,1010.59
2016-08-05T09:05:15.779Z,1010.63
2016-08-05T09:06:15.786Z,1010.59
2016-08-05T09:07:15.822Z,1010.63
2016-08-05T09:08:15.798Z,1010.63
2016-08-05T09:09:15.805Z,1010.64
2016-08-05T09:10:15.811Z,1010.64
2016-08-05T09:11:15.816Z,1010.7
2016-08-05T09:12:15.823Z,1010.7
2016-08-05T09:13:15.828Z,1010.67
2016-08-05T09:14:15.836Z,1010.69
2016-08-05T09:15:15.842Z,1010.67
2016-08-05T09:16:15.847Z,1010.72
2016-08-05T09:17:15.854Z,1010.76
2016-08-05T09:18:15.860Z,1010.76
2016-08-05T09:19:15.875Z,1010.77
2016-08-05T09:20:15.874Z,1010.79
2016-08-05T09:21:15.878Z,1010.82
2016-08-05T09:22:15.890Z,1010.84
2016-08-05T09:23:15.891Z,1010.76
2016-08-05T09:24:15.907Z,1010.8
2016-08-05T09:25:15.903Z,1010.85
2016-08-05T09:26:15.915Z,1010.85
2016-08-05T09:27:15.917Z,1010.87
2016-08-05T09:28:15.924Z,1010.86
2016-08-05T09:29:15.928Z,1010.85
2016-08-05T09:30:15.934Z,1010.92
2016-08-05T09:31:15.941Z,1010.83
2016-08-05T09:32:15.955Z,1010.86
2016-08-05T09:33:16.002Z,1010.91
2016-08-05T09:34:15.960Z,1010.89
2016-08-05T09:35:15.985Z,1010.93
2016-08-05T09:36:15.973Z,1010.93
2016-08-05T09:37:16.021Z,1010.92
2016-08-05T09:38:16.010Z,1010.92
2016-08-05T09:39:16.005Z,1010.9
2016-08-05T09:40:16.284Z,1010.92
2016-08-05T09:41:16.026Z,1010.9
2016-08-05T09:42:16.031Z,1010.91
2016-08-05T09:43:16.017Z,1010.91
2016-08-05T09:44:16.020Z,1010.92
2016-08-05T09:45:16.027Z,1010.91
2016-08-05T09:46:16.033Z,1010.9
2016-08-05T09:47:16.045Z,1010.93
2016-08-05T09:48:16.045Z,1010.92
2016-08-05T09:49:16.074Z,1010.94
2016-08-05T09:50:16.058Z,1010.98
2016-08-05T09:51:16.065Z,1010.94
2016-08-05T09:52:16.070Z,1010.93
2016-08-05T09:53:16.078Z,1010.98
2016-08-05T09:54:16.084Z,1011.02
2016-08-05T09:55:16.088Z,1010.99
2016-08-05T09:56:16.120Z,1011.01
2016-08-05T09:57:16.110Z,1011.03
2016-08-05T09:58:16.113Z,1011.04
2016-08-05T09:59:16.115Z,1011.11
2016-08-05T10:00:16.122Z,1011.06
2016-08-05T10:01:16.128Z,1011.06
2016-08-05T10:02:16.134Z,1011.02
2016-08-05T10:03:16.140Z,1011.03
2016-08-05T10:04:16.146Z,1011.03
2016-08-05T10:05:16.152Z,1011.08
2016-08-05T10:06:16.160Z,1011.07
2016-08-05T10:07:16.163Z,1011.09
2016-08-05T10:08:16.171Z,1011.11
2016-08-05T10:09:16.178Z,1011.09
2016-08-05T10:10:16.184Z,1011.1
2016-08-05T10:11:16.191Z,1011.08
2016-08-05T10:12:16.196Z,1011.08
2016-08-05T10:13:16.201Z,1011.11
2016-08-05T10:14:16.207Z,1011.14
2016-08-05T10:15:16.214Z,1011.1
2016-08-05T10:16:16.221Z,1011.14
2016-08-05T10:17:16.228Z,1011.15
2016-08-05T10:18:16.233Z,1011.15
2016-08-05T10:19:16.239Z,1011.14
2016-08-05T10:20:16.249Z,1011.14
2016-08-05T10:21:16.250Z,1011.12
2016-08-05T10:22:16.264Z,1011.11
2016-08-05T10:23:16.264Z,1011.13
2016-08-05T10:24:16.271Z,1011.07
2016-08-05T10:25:16.277Z,1011.1
2016-08-05T10:26:16.284Z,1011
2016-08-05T10:27:16.290Z,1011.1
2016-08-05T10:28:16.295Z,1011.06
2016-08-05T10:29:16.303Z,1011.08
2016-08-05T10:30:16.571Z,1011.04
2016-08-05T10:31:16.315Z,1011.05
2016-08-05T10:32:16.322Z,1011
2016-08-05T10:33:16.388Z,1011.02
2016-08-05T10:34:16.604Z,1011.06
2016-08-05T10:35:16.345Z,1011.02
2016-08-05T10:36:16.603Z,1011.05
2016-08-05T10:37:16.364Z,1011.06
2016-08-05T10:38:16.358Z,1011.09
2016-08-05T10:39:16.364Z,1011.12
2016-08-05T10:40:16.371Z,1011.12
2016-08-05T10:41:16.624Z,1011.14
2016-08-05T10:42:16.384Z,1011.18
2016-08-05T10:43:16.389Z,1011.2
2016-08-05T10:44:16.396Z,1011.16
2016-08-05T10:45:16.401Z,1011.18
2016-08-05T10:46:16.409Z,1011.17
2016-08-05T10:47:16.415Z,1011.16
2016-08-05T10:48:16.422Z,1011.15
2016-08-05T10:49:16.428Z,1011.17
2016-08-05T10:50:16.433Z,1011.1
2016-08-05T10:51:16.440Z,1011.13
2016-08-05T10:52:16.447Z,1011.12
2016-08-05T10:53:16.453Z,1011.15
2016-08-05T10:54:16.459Z,1011.16
2016-08-05T10:55:16.464Z,1011.13
2016-08-05T10:56:16.472Z,1011.22
2016-08-05T10:57:16.477Z,1011.24
2016-08-05T10:58:16.489Z,1011.2
2016-08-05T10:59:16.490Z,1011.21
2016-08-05T11:00:16.498Z,1011.21
2016-08-05T11:01:16.503Z,1011.2
2016-08-05T11:02:16.510Z,1011.21
2016-08-05T11:03:16.515Z,1011.23
2016-08-05T11:04:16.520Z,1011.25
2016-08-05T11:05:16.527Z,1011.26
2016-08-05T11:06:16.533Z,1011.25
2016-08-05T11:07:16.539Z,1011.22
2016-08-05T11:08:16.545Z,1011.24
2016-08-05T11:09:16.553Z,1011.22
2016-08-05T11:10:16.657Z,1011.22
2016-08-05T11:11:16.682Z,1011.18
2016-08-05T11:12:16.572Z,1011.22
2016-08-05T11:13:16.577Z,1011.23
2016-08-05T11:14:16.584Z,1011.28
2016-08-05T11:15:16.591Z,1011.28
2016-08-05T11:16:16.598Z,1011.23
2016-08-05T11:17:16.603Z,1011.28
2016-08-05T11:18:16.611Z,1011.2
2016-08-05T11:19:16.634Z,1011.19
2016-08-05T11:20:16.622Z,1011.23
2016-08-05T11:21:16.629Z,1011.24
2016-08-05T11:22:16.636Z,1011.24
2016-08-05T11:23:16.641Z,1011.28
2016-08-05T11:24:16.649Z,1011.24
2016-08-05T11:25:16.654Z,1011.26
2016-08-05T11:26:16.659Z,1011.31
2016-08-05T11:27:16.667Z,1011.32
2016-08-05T11:28:16.672Z,1011.27
2016-08-05T11:29:16.680Z,1011.26
2016-08-05T11:30:16.684Z,1011.28
2016-08-05T11:31:16.692Z,1011.31
2016-08-05T11:32:16.697Z,1011.28
2016-08-05T11:33:16.704Z,1011.31
2016-08-05T11:34:16.710Z,1011.32
2016-08-05T11:35:16.719Z,1011.31
2016-08-05T11:36:16.729Z,1011.35
2016-08-05T11:37:16.730Z,1011.33
2016-08-05T11:38:16.737Z,1011.37
2016-08-05T11:39:16.744Z,1011.3
2016-08-05T11:40:16.749Z,1011.4
2016-08-05T11:41:16.755Z,1011.34
2016-08-05T11:42:16.762Z,1011.34
2016-08-05T11:43:16.767Z,1011.37
2016-08-05T11:44:16.773Z,1011.4
2016-08-05T11:45:16.781Z,1011.36
2016-08-05T11:46:16.787Z,1011.37
2016-08-05T11:47:16.793Z,1011.37
2016-08-05T11:48:16.799Z,1011.4
2016-08-05T11:49:16.804Z,1011.4
2016-08-05T11:50:16.812Z,1011.4
2016-08-05T11:51:16.819Z,1011.4
2016-08-05T11:52:16.825Z,1011.4
2016-08-05T11:53:16.831Z,1011.4
2016-08-05T11:54:16.837Z,1011.36
2016-08-05T11:55:16.842Z,1011.4
2016-08-05T11:56:16.850Z,1011.38
2016-08-05T11:57:16.856Z,1011.36
2016-08-05T11:58:16.861Z,1011.36
2016-08-05T11:59:16.867Z,1011.36
2016-08-05T12:00:16.889Z,1011.37
2016-08-05T12:01:16.883Z,1011.39
2016-08-05T12:02:16.887Z,1011.36
2016-08-05T12:03:17.184Z,1011.32
2016-08-05T12:04:16.901Z,1011.35
2016-08-05T12:05:16.908Z,1011.3
2016-08-05T12:06:16.912Z,1011.29
2016-08-05T12:07:16.917Z,1011.27
2016-08-05T12:08:16.927Z,1011.28
2016-08-05T12:09:16.931Z,1011.23
2016-08-05T12:10:16.936Z,1011.2
2016-08-05T12:11:16.944Z,1011.21
2016-08-05T12:12:16.952Z,1011.2
2016-08-05T12:13:16.957Z,1011.25
2016-08-05T12:14:16.966Z,1011.3
2016-08-05T12:15:16.969Z,1011.36